Time;durP1;ratioP1;P1;durP2;ratioP2;P2;SDS_P1;SDS_P2;PMS_P1;PMS_P2;Temp;Humidity;BMP_temperature;BMP_pressure;BME280_temperature;BME280_humidity;BME280_pressure;Samples;Min_cycle;Max_cycle;Signal;HPM_P1;HPM_P2
2023/10/14 00:02:21;;;;;;;12.50;6.47;;;18.90;99.90;;;;;;5357430;23;20303;-43
2023/10/14 00:04:48;;;;;;;13.87;7.47;;;18.80;99.90;;;;;;5014993;28;20213;-44
2023/10/14 00:07:24;;;;;;;13.77;7.30;;;18.70;99.90;;;;;;5014007;28;20185;-43
2023/10/14 00:09:51;;;;;;;10.60;5.50;;;18.60;99.90;;;;;;5014109;28;20193;-44
2023/10/14 00:19:55;;;;;;;12.33;7.13;;;18.20;99.90;;;;;;5038994;23;20295;-48
2023/10/14 00:22:28;;;;;;;18.63;7.50;;;18.10;99.90;;;;;;4994791;28;20181;-47
2023/10/14 00:24:54;;;;;;;16.90;8.27;;;18.00;99.90;;;;;;4995286;28;20174;-48
2023/10/14 00:27:25;;;;;;;18.73;7.77;;;18.00;99.90;;;;;;4994947;28;20171;-48
2023/10/14 00:30:05;;;;;;;12.97;7.50;;;17.90;99.90;;;;;;4994802;28;20198;-46
2023/10/14 00:32:34;;;;;;;13.97;7.77;;;17.90;99.90;;;;;;5005103;28;20240;-49
2023/10/14 00:35:03;;;;;;;14.93;8.00;;;17.90;99.90;;;;;;4995134;28;20588;-46
2023/10/14 00:37:36;;;;;;;14.73;7.57;;;17.80;99.90;;;;;;4994259;28;20248;-47
2023/10/14 00:40:22;;;;;;;14.30;7.63;;;17.80;99.90;;;;;;4994880;28;20198;-46
2023/10/14 00:43:09;;;;;;;12.37;7.30;;;17.80;99.90;;;;;;4981148;28;20283;-48
2023/10/14 00:45:43;;;;;;;14.07;8.20;;;17.80;99.90;;;;;;4995213;28;20159;-48
2023/10/14 00:48:26;;;;;;;12.17;6.83;;;17.80;99.90;;;;;;4994858;28;20674;-47
2023/10/14 00:50:59;;;;;;;16.50;7.70;;;17.80;99.90;;;;;;4994259;28;20245;-49
2023/10/14 00:53:30;;;;;;;13.77;7.00;;;17.80;99.90;;;;;;4994478;28;20245;-47
2023/10/14 00:55:57;;;;;;;13.93;6.20;;;17.80;99.90;;;;;;4994630;28;20222;-48
2023/10/14 00:58:30;;;;;;;11.17;5.27;;;17.80;99.90;;;;;;4994324;28;20596;-48
2023/10/14 01:00:59;;;;;;;9.97;5.37;;;17.80;99.90;;;;;;4978005;28;20289;-48
2023/10/14 01:03:37;;;;;;;7.90;4.40;;;17.80;99.90;;;;;;4994257;28;20181;-47
2023/10/14 01:06:23;;;;;;;13.47;5.10;;;17.90;99.90;;;;;;4994291;28;20165;-47
2023/10/14 01:08:53;;;;;;;12.17;4.83;;;17.90;99.90;;;;;;4994253;28;20173;-48
2023/10/14 01:11:26;;;;;;;15.07;5.30;;;17.90;99.90;;;;;;5009114;28;20210;-46
2023/10/14 01:14:00;;;;;;;10.43;4.57;;;17.80;99.90;;;;;;5008691;28;20288;-48
2023/10/14 01:16:36;;;;;;;12.97;5.53;;;17.70;99.90;;;;;;4994937;28;20193;-46
2023/10/14 01:19:03;;;;;;;8.33;4.80;;;17.70;99.90;;;;;;4994116;28;20221;-47
2023/10/14 01:21:28;;;;;;;9.10;4.03;;;17.50;99.90;;;;;;5009169;28;20194;-48
2023/10/14 01:23:59;;;;;;;7.87;3.97;;;17.40;99.90;;;;;;4994098;28;20178;-46
2023/10/14 01:26:33;;;;;;;10.87;3.50;;;17.30;99.90;;;;;;4994493;28;20261;-48
2023/10/14 01:28:59;;;;;;;7.50;3.07;;;17.20;99.90;;;;;;5007107;28;20241;-48
2023/10/14 01:32:11;;;;;;;4.77;2.50;;;17.20;99.90;;;;;;4993794;28;20206;-47
2023/10/14 01:34:44;;;;;;;7.73;2.60;;;17.10;99.90;;;;;;4993997;28;20186;-48
2023/10/14 01:37:19;;;;;;;5.70;2.40;;;17.10;99.90;;;;;;5009949;28;20170;-48
2023/10/14 01:39:56;;;;;;;4.57;2.40;;;17.00;99.90;;;;;;4989282;28;20630;-46
2023/10/14 01:42:23;;;;;;;9.33;3.20;;;17.00;99.90;;;;;;4993539;28;20169;-48
2023/10/14 01:44:58;;;;;;;4.70;1.87;;;16.90;99.90;;;;;;5008827;28;20209;-48
2023/10/14 01:47:27;;;;;;;4.60;1.60;;;16.70;99.90;;;;;;4992262;28;20189;-48
2023/10/14 01:50:05;;;;;;;3.03;1.23;;;16.60;99.90;;;;;;4993258;28;20285;-48
2023/10/14 01:52:32;;;;;;;1.20;0.80;;;16.40;99.90;;;;;;4994355;28;20237;-47
2023/10/14 01:55:00;;;;;;;3.87;0.77;;;16.20;99.90;;;;;;4993726;28;20567;-47
2023/10/14 01:57:27;;;;;;;2.10;0.90;;;15.90;99.90;;;;;;4993842;28;20182;-48
2023/10/14 01:59:53;;;;;;;2.03;0.80;;;15.80;99.90;;;;;;4993863;28;20261;-48
2023/10/14 02:02:21;;;;;;;0.90;0.50;;;15.60;99.90;;;;;;4992578;28;20190;-47
2023/10/14 02:04:56;;;;;;;1.00;0.50;;;15.50;99.90;;;;;;4992803;28;20205;-47
2023/10/14 02:07:22;;;;;;;2.07;0.60;;;15.30;99.90;;;;;;4993946;28;20166;-46
2023/10/14 02:09:48;;;;;;;0.93;0.40;;;15.10;99.90;;;;;;4993977;28;20209;-47
2023/10/14 02:12:15;;;;;;;1.10;0.40;;;14.90;99.90;;;;;;4992456;28;20206;-46
2023/10/14 02:14:54;;;;;;;1.67;0.50;;;14.80;99.90;;;;;;4993682;28;20522;-46
2023/10/14 02:17:23;;;;;;;2.80;0.40;;;14.70;99.90;;;;;;4980252;28;20665;-47
2023/10/14 02:19:52;;;;;;;0.50;0.43;;;14.50;99.90;;;;;;4993919;28;20218;-49
2023/10/14 02:22:29;;;;;;;0.77;0.50;;;14.40;99.90;;;;;;4993633;28;20329;-48
2023/10/14 02:24:57;;;;;;;0.60;0.33;;;14.30;99.90;;;;;;4993809;28;20242;-47
2023/10/14 02:27:24;;;;;;;1.90;0.30;;;14.30;99.90;;;;;;4992451;28;20554;-46
2023/10/14 02:29:49;;;;;;;3.03;0.50;;;14.20;99.90;;;;;;4992227;28;20336;-48
2023/10/14 02:32:15;;;;;;;1.03;0.37;;;14.20;99.90;;;;;;4992244;28;20753;-49
2023/10/14 02:34:44;;;;;;;1.00;0.43;;;14.20;99.90;;;;;;4992956;28;20261;-48
2023/10/14 02:37:14;;;;;;;0.40;0.40;;;14.20;99.90;;;;;;4992238;28;20194;-48
2023/10/14 02:39:44;;;;;;;0.30;0.30;;;14.20;99.90;;;;;;4993564;28;20561;-48
2023/10/14 02:42:10;;;;;;;0.97;0.40;;;14.20;99.90;;;;;;4992504;28;20195;-49
2023/10/14 02:44:44;;;;;;;0.77;0.60;;;14.20;99.90;;;;;;4995669;28;20316;-49
2023/10/14 02:47:13;;;;;;;0.73;0.50;;;14.20;99.90;;;;;;4996810;28;20197;-48
2023/10/14 02:49:41;;;;;;;1.13;0.70;;;14.20;99.90;;;;;;4996794;28;20202;-45
2023/10/14 02:56:33;;;;;;;2.67;1.03;;;14.10;99.90;;;;;;4996963;28;20189;-49
2023/10/14 02:59:02;;;;;;;3.17;1.30;;;14.20;99.90;;;;;;4996988;28;20162;-46
2023/10/14 03:01:34;;;;;;;3.20;1.30;;;14.20;99.90;;;;;;5010921;28;20740;-47
2023/10/14 03:04:07;;;;;;;4.13;1.40;;;14.20;99.90;;;;;;5011910;28;20654;-47
2023/10/14 03:06:46;;;;;;;2.80;1.67;;;14.20;99.90;;;;;;4995259;28;20193;-48
2023/10/14 03:10:12;;;;;;;2.87;1.30;;;14.20;99.90;;;;;;4998506;28;20206;-47
2023/10/14 03:12:49;;;;;;;7.40;1.60;;;14.20;99.90;;;;;;4996409;28;20210;-47
2023/10/14 03:18:40;;;;;;;2.20;1.20;;;14.00;99.90;;;;;;4996155;28;20205;-46
2023/10/14 03:21:10;;;;;;;3.33;1.30;;;13.90;99.90;;;;;;5011354;28;20257;-49
2023/10/14 03:23:38;;;;;;;4.40;1.20;;;13.80;99.90;;;;;;4995018;28;20198;-47
2023/10/14 03:26:13;;;;;;;4.07;1.30;;;13.70;99.90;;;;;;4996094;28;20533;-47
2023/10/14 03:28:50;;;;;;;3.70;1.27;;;13.70;99.90;;;;;;5011227;28;20615;-48
2023/10/14 03:31:19;;;;;;;3.57;1.37;;;13.60;99.90;;;;;;4997018;28;20272;-48
2023/10/14 03:33:45;;;;;;;3.87;1.23;;;13.60;99.90;;;;;;4995007;28;20268;-48
2023/10/14 03:36:19;;;;;;;5.93;1.80;;;13.60;99.90;;;;;;4994768;28;20191;-49
2023/10/14 03:38:55;;;;;;;10.13;1.50;;;13.60;99.90;;;;;;4996245;28;20539;-48
2023/10/14 03:41:28;;;;;;;4.80;1.07;;;13.50;99.90;;;;;;4996151;28;20260;-49
2023/10/14 03:44:05;;;;;;;4.50;1.23;;;13.40;99.90;;;;;;4996142;28;20174;-49
2023/10/14 03:46:40;;;;;;;9.37;1.37;;;13.30;99.90;;;;;;4996109;28;20182;-48
2023/10/14 03:49:06;;;;;;;4.20;1.37;;;13.30;99.90;;;;;;5008792;28;20194;-49
2023/10/14 03:51:35;;;;;;;10.17;1.50;;;13.30;99.90;;;;;;4996092;28;20214;-49
2023/10/14 03:54:12;;;;;;;8.07;1.37;;;13.20;99.90;;;;;;4995469;28;20650;-47
2023/10/14 03:56:45;;;;;;;7.23;1.23;;;13.20;99.90;;;;;;5009610;28;20175;-47
2023/10/14 03:59:23;;;;;;;5.90;1.27;;;13.20;99.90;;;;;;4995498;28;20173;-47
2023/10/14 04:01:59;;;;;;;6.87;1.80;;;13.10;99.90;;;;;;5007307;28;20189;-49
2023/10/14 04:04:30;;;;;;;7.50;1.37;;;13.10;99.90;;;;;;4994647;28;20185;-46
2023/10/14 04:09:38;;;;;;;10.17;1.70;;;13.10;99.90;;;;;;4994382;28;20241;-48
2023/10/14 04:12:30;;;;;;;6.10;1.20;;;13.10;99.90;;;;;;4995214;28;20669;-48
2023/10/14 04:17:47;;;;;;;8.43;1.70;;;13.00;99.90;;;;;;4994875;28;20276;-49
2023/10/14 04:22:41;;;;;;;12.73;1.57;;;13.00;99.90;;;;;;4994282;28;20214;-48
2023/10/14 04:25:21;;;;;;;9.37;1.43;;;12.90;99.90;;;;;;5009989;28;20190;-49
2023/10/14 04:28:17;;;;;;;11.30;1.77;;;12.90;99.90;;;;;;4994244;28;20196;-47
2023/10/14 04:30:51;;;;;;;11.13;2.00;;;12.90;99.90;;;;;;4994587;28;20217;-48
2023/10/14 04:33:21;;;;;;;9.23;1.80;;;12.90;99.90;;;;;;4995039;28;20196;-48
2023/10/14 04:38:45;;;;;;;7.90;1.90;;;12.90;99.90;;;;;;4995415;28;20196;-48
2023/10/14 04:41:14;;;;;;;8.37;1.93;;;12.90;99.90;;;;;;4993599;28;20201;-49
2023/10/14 04:44:00;;;;;;;8.47;2.10;;;12.80;99.90;;;;;;5009857;28;20194;-49
2023/10/14 04:46:54;;;;;;;11.10;1.90;;;12.80;99.90;;;;;;4994090;28;20557;-48
2023/10/14 04:49:37;;;;;;;9.10;2.30;;;12.80;99.90;;;;;;4993802;28;20181;-48
2023/10/14 04:52:09;;;;;;;12.27;2.13;;;12.70;99.90;;;;;;4994174;28;20218;-48
2023/10/14 04:55:07;;;;;;;14.87;2.47;;;12.70;99.90;;;;;;4996116;28;20221;-47
2023/10/14 05:00:45;;;;;;;7.97;1.83;;;12.60;99.90;;;;;;4995209;28;20652;-45
2023/10/14 05:03:22;;;;;;;6.97;1.73;;;12.50;99.90;;;;;;4994857;28;20194;-42
2023/10/14 05:08:51;;;;;;;11.43;2.00;;;12.40;99.90;;;;;;4989778;28;20197;-48
2023/10/14 05:11:21;;;;;;;7.10;1.43;;;12.30;99.90;;;;;;4993557;28;20231;-47
2023/10/14 05:14:08;;;;;;;13.27;2.23;;;12.30;99.90;;;;;;5009405;28;20321;-47
2023/10/14 05:17:27;;;;;;;6.27;1.53;;;12.30;99.90;;;;;;4994508;28;20159;-47
2023/10/14 05:19:30;;;;;;;9.10;1.73;;;12.20;99.90;;;;;;4993618;28;20201;-45
2023/10/14 05:22:04;;;;;;;8.73;1.80;;;12.20;99.90;;;;;;4994014;28;20235;-48
2023/10/14 05:24:32;;;;;;;6.57;1.87;;;12.10;99.90;;;;;;4994522;28;20175;-48
2023/10/14 05:32:53;;;;;;;9.33;1.93;;;12.10;99.90;;;;;;5012619;28;20225;-42
2023/10/14 05:35:22;;;;;;;10.13;2.20;;;12.00;99.90;;;;;;5012482;28;20197;-43
2023/10/14 05:37:48;;;;;;;9.83;2.30;;;12.00;99.90;;;;;;5012091;28;20197;-43
2023/10/14 05:40:15;;;;;;;8.83;2.13;;;12.00;99.90;;;;;;5013732;28;20563;-44
2023/10/14 05:42:47;;;;;;;10.80;2.37;;;12.00;99.90;;;;;;5013510;28;20181;-43
2023/10/14 05:45:13;;;;;;;17.63;2.40;;;11.90;99.90;;;;;;5013815;28;20173;-42
2023/10/14 05:47:42;;;;;;;7.67;2.17;;;11.90;99.90;;;;;;5013457;28;20189;-45
2023/10/14 05:50:15;;;;;;;8.20;1.80;;;11.90;99.90;;;;;;5012000;28;20326;-44
2023/10/14 05:52:46;;;;;;;9.50;2.13;;;11.90;99.90;;;;;;5012380;28;20213;-41
2023/10/14 05:55:11;;;;;;;8.40;1.73;;;11.90;99.90;;;;;;5012140;28;20216;-44
2023/10/14 05:57:41;;;;;;;10.10;2.03;;;11.90;99.90;;;;;;5013428;28;20576;-44
2023/10/14 06:00:27;;;;;;;13.83;1.97;;;11.80;99.90;;;;;;5013438;28;20212;-48
2023/10/14 06:02:54;;;;;;;13.57;2.43;;;11.80;99.90;;;;;;5013401;28;20158;-46
2023/10/14 06:08:25;;;;;;;10.30;1.93;;;11.80;99.90;;;;;;5001247;28;20236;-47
2023/10/14 06:10:51;;;;;;;13.67;2.47;;;11.70;99.90;;;;;;5013454;28;20595;-47
2023/10/14 06:13:19;;;;;;;11.57;2.00;;;11.70;99.90;;;;;;5013211;28;20170;-48
2023/10/14 06:15:46;;;;;;;13.97;2.93;;;11.70;99.90;;;;;;5013540;28;20587;-49
2023/10/14 06:18:14;;;;;;;11.77;2.27;;;11.60;99.90;;;;;;5013291;28;20173;-48
2023/10/14 06:20:45;;;;;;;10.37;1.97;;;11.60;99.90;;;;;;5015600;28;20198;-49
2023/10/14 06:23:26;;;;;;;6.53;1.53;;;11.60;99.90;;;;;;5016891;28;20736;-47
2023/10/14 06:25:59;;;;;;;8.77;1.67;;;11.50;99.90;;;;;;5016868;28;20205;-49
2023/10/14 06:28:30;;;;;;;11.13;2.07;;;11.50;99.90;;;;;;5015787;28;20256;-47
2023/10/14 06:31:00;;;;;;;12.00;2.70;;;11.50;99.90;;;;;;5017124;28;20305;-48
2023/10/14 06:33:29;;;;;;;19.63;2.10;;;11.40;99.90;;;;;;5016810;28;20224;-47
2023/10/14 06:36:00;;;;;;;9.23;1.97;;;11.40;99.90;;;;;;5016578;28;20731;-48
2023/10/14 06:38:26;;;;;;;8.60;1.47;;;11.40;99.90;;;;;;5015379;28;20208;-48
2023/10/14 06:40:55;;;;;;;9.83;2.00;;;11.40;99.90;;;;;;5016598;28;20274;-47
2023/10/14 06:43:26;;;;;;;9.60;1.90;;;11.40;99.90;;;;;;5015145;28;20185;-47
2023/10/14 06:45:54;;;;;;;10.37;2.00;;;11.40;99.90;;;;;;5016468;28;20229;-45
2023/10/14 06:48:27;;;;;;;10.63;2.67;;;11.30;99.90;;;;;;5016394;28;20189;-47
2023/10/14 06:50:54;;;;;;;8.67;1.83;;;11.30;99.90;;;;;;5016271;28;20306;-48
2023/10/14 06:53:20;;;;;;;11.67;2.33;;;11.30;99.90;;;;;;5010501;28;20281;-49
2023/10/14 06:55:46;;;;;;;12.03;2.00;;;11.30;99.90;;;;;;5016656;28;20186;-48
2023/10/14 06:58:22;;;;;;;7.37;1.97;;;11.30;99.90;;;;;;5015147;28;20285;-47
2023/10/14 07:00:52;;;;;;;18.73;1.90;;;11.30;99.90;;;;;;5016126;28;20284;-48
2023/10/14 07:03:17;;;;;;;7.00;2.17;;;11.30;99.90;;;;;;5016542;28;20166;-48
2023/10/14 07:05:58;;;;;;;12.53;2.30;;;11.30;99.90;;;;;;5016097;28;20188;-43
2023/10/14 07:09:16;;;;;;;7.47;1.77;;;11.30;99.90;;;;;;5015268;28;20241;-42
2023/10/14 07:11:48;;;;;;;11.10;2.53;;;11.30;99.90;;;;;;5016232;28;20546;-43
2023/10/14 07:14:14;;;;;;;16.30;2.77;;;11.40;99.90;;;;;;5015487;28;20650;-43
2023/10/14 07:16:42;;;;;;;5.93;1.50;;;11.40;99.90;;;;;;5016556;28;20201;-42
2023/10/14 07:19:46;;;;;;;9.43;2.73;;;11.40;99.90;;;;;;5016602;28;20210;-45
2023/10/14 07:22:14;;;;;;;12.07;2.13;;;11.50;99.90;;;;;;5016169;28;20269;-42
2023/10/14 07:24:41;;;;;;;5.63;2.07;;;11.50;99.90;;;;;;5015622;28;20219;-43
2023/10/14 07:27:07;;;;;;;10.37;2.13;;;11.50;99.90;;;;;;5015878;28;20213;-43
2023/10/14 07:29:33;;;;;;;11.77;2.13;;;11.50;99.90;;;;;;4997937;28;20189;-44
2023/10/14 07:32:01;;;;;;;7.30;2.20;;;11.50;99.90;;;;;;5015519;28;20211;-42
2023/10/14 07:34:28;;;;;;;18.97;2.50;;;11.50;99.90;;;;;;5014519;28;20216;-41
2023/10/14 07:36:54;;;;;;;10.07;2.63;;;11.50;99.90;;;;;;5014624;28;20181;-44
2023/10/14 07:39:30;;;;;;;8.23;2.23;;;11.60;99.90;;;;;;5015662;28;20213;-44
2023/10/14 07:41:57;;;;;;;13.13;2.80;;;11.60;99.90;;;;;;5015546;28;20166;-43
2023/10/14 07:44:24;;;;;;;11.37;2.53;;;11.60;99.90;;;;;;5015787;28;20189;-43
2023/10/14 07:46:54;;;;;;;9.67;2.27;;;11.60;99.90;;;;;;5013902;28;20292;-42
2023/10/14 07:49:20;;;;;;;10.10;2.23;;;11.60;99.90;;;;;;5016162;28;20258;-46
2023/10/14 07:51:46;;;;;;;10.77;1.80;;;11.60;99.90;;;;;;5015014;28;20229;-43
2023/10/14 07:54:13;;;;;;;11.50;2.20;;;11.70;99.90;;;;;;5015473;28;20189;-43
2023/10/14 07:56:43;;;;;;;8.23;1.43;;;11.70;99.90;;;;;;5015245;28;20209;-43
2023/10/14 07:59:10;;;;;;;7.57;2.03;;;11.70;99.90;;;;;;5015166;28;20220;-43
2023/10/14 08:01:38;;;;;;;6.20;1.50;;;11.70;99.90;;;;;;5015249;28;20224;-45
2023/10/14 08:04:07;;;;;;;10.97;2.33;;;11.70;99.90;;;;;;5015293;28;20236;-44
2023/10/14 08:06:40;;;;;;;13.77;2.53;;;11.80;99.90;;;;;;5013672;28;20185;-44
2023/10/14 08:09:23;;;;;;;14.03;2.40;;;11.80;99.90;;;;;;4997900;28;20193;-42
2023/10/14 08:11:50;;;;;;;10.70;1.90;;;11.80;99.90;;;;;;5015139;28;20208;-48
2023/10/14 08:14:16;;;;;;;11.50;2.23;;;11.90;99.90;;;;;;5015119;28;20173;-48
2023/10/14 08:16:51;;;;;;;9.27;2.47;;;11.90;99.90;;;;;;5013493;28;20193;-48
2023/10/14 08:19:21;;;;;;;8.87;1.93;;;11.90;99.90;;;;;;5015180;28;20533;-48
2023/10/14 08:21:53;;;;;;;8.57;1.40;;;12.00;99.90;;;;;;5014718;28;20174;-48
2023/10/14 08:24:20;;;;;;;8.07;2.00;;;12.00;99.90;;;;;;5014940;28;20189;-48
2023/10/14 08:26:46;;;;;;;11.13;2.20;;;12.00;99.90;;;;;;5014618;28;20216;-48
2023/10/14 08:29:19;;;;;;;8.73;2.00;;;12.10;99.90;;;;;;5011003;28;20276;-48
2023/10/14 08:31:51;;;;;;;7.80;2.07;;;12.10;99.90;;;;;;5014735;28;20259;-49
2023/10/14 08:34:17;;;;;;;18.13;2.30;;;12.10;99.90;;;;;;5014545;28;20291;-48
2023/10/14 08:36:43;;;;;;;8.93;2.03;;;12.20;99.90;;;;;;4997034;28;20186;-40
2023/10/14 08:39:09;;;;;;;11.70;3.10;;;12.30;99.90;;;;;;5014693;28;20185;-43
2023/10/14 08:41:36;;;;;;;14.87;2.60;;;12.30;99.90;;;;;;5013760;28;20564;-43
2023/10/14 08:44:08;;;;;;;10.13;1.87;;;12.40;99.90;;;;;;5014354;28;20717;-41
2023/10/14 08:46:40;;;;;;;11.93;1.80;;;12.40;99.90;;;;;;5014382;28;20208;-44
2023/10/14 08:49:09;;;;;;;7.60;1.50;;;12.50;99.90;;;;;;5014167;28;20182;-42
2023/10/14 08:51:40;;;;;;;13.40;2.17;;;12.60;99.90;;;;;;5012731;28;20245;-42
2023/10/14 08:54:11;;;;;;;13.50;2.83;;;12.60;99.90;;;;;;5013009;28;20228;-43
2023/10/14 08:56:36;;;;;;;10.40;2.23;;;12.60;99.90;;;;;;5012982;28;20197;-44
2023/10/14 08:59:03;;;;;;;9.87;2.00;;;12.60;99.90;;;;;;5014156;28;20185;-41
2023/10/14 09:01:31;;;;;;;10.00;2.17;;;12.70;99.90;;;;;;5014159;28;20247;-44
2023/10/14 09:03:59;;;;;;;9.83;1.63;;;12.70;99.90;;;;;;5014266;28;20182;-43
2023/10/14 09:12:24;;;;;;;13.53;2.43;;;13.00;99.90;;;;;;5207353;23;20237;-89
2023/10/14 09:14:50;;;;;;;11.37;2.40;;;14.60;99.90;;;;;;5006802;28;20189;-86
2023/10/14 09:17:16;;;;;;;11.37;1.80;;;14.10;99.90;;;;;;5024460;28;20173;-88
2023/10/14 09:19:47;;;;;;;9.97;2.10;;;13.60;99.90;;;;;;5026746;28;20201;-86
2023/10/14 09:22:26;;;;;;;5.87;1.60;;;13.10;99.90;;;;;;5028659;28;20181;-88
2023/10/14 09:24:59;;;;;;;10.37;2.10;;;13.30;99.90;;;;;;5033222;28;20190;-90
2023/10/14 09:27:31;;;;;;;10.23;1.37;;;13.20;99.90;;;;;;5027831;28;20196;-90
2023/10/14 09:29:57;;;;;;;8.50;2.03;;;13.20;99.90;;;;;;4992218;28;20277;-91
2023/10/14 09:32:24;;;;;;;11.03;2.20;;;13.80;99.90;;;;;;5023964;28;20247;-89
2023/10/14 09:34:55;;;;;;;11.83;2.40;;;14.50;99.90;;;;;;5023293;28;20204;-89
2023/10/14 09:37:22;;;;;;;11.60;2.10;;;13.70;99.90;;;;;;5023106;28;20272;-90
2023/10/14 09:39:49;;;;;;;8.00;2.10;;;14.30;99.90;;;;;;5024120;28;20291;-90
2023/10/14 09:42:16;;;;;;;11.23;1.47;;;15.00;99.90;;;;;;5022307;28;20207;-92
2023/10/14 09:44:42;;;;;;;7.73;2.00;;;13.90;99.90;;;;;;5021850;28;20201;-92
2023/10/14 09:47:13;;;;;;;9.20;1.60;;;14.20;99.90;;;;;;5020017;28;20250;-91
2023/10/14 09:49:43;;;;;;;7.73;1.77;;;13.90;99.90;;;;;;5022002;28;20205;-89
2023/10/14 09:52:14;;;;;;;11.33;2.30;;;15.90;99.90;;;;;;5020570;28;20212;-92
2023/10/14 09:54:42;;;;;;;11.40;2.30;;;11.80;99.90;;;;;;4992643;28;20185;-92
2023/10/14 09:57:12;;;;;;;14.13;1.93;;;14.40;99.90;;;;;;5023757;28;20212;-90
2023/10/14 09:59:44;;;;;;;12.63;1.97;;;14.20;99.90;;;;;;5024455;28;20236;-90
2023/10/14 10:02:10;;;;;;;13.70;1.97;;;15.30;99.30;;;;;;5023973;28;20185;-92
2023/10/14 10:04:42;;;;;;;15.77;2.13;;;14.70;99.90;;;;;;5021705;28;20207;-90
2023/10/14 10:07:45;;;;;;;11.67;1.87;;;14.90;99.90;;;;;;5022800;28;20181;-91
2023/10/14 10:10:18;;;;;;;10.87;2.20;;;14.40;99.90;;;;;;5023101;28;20219;-90
2023/10/14 10:12:52;;;;;;;7.23;1.93;;;14.50;99.90;;;;;;5021702;28;20220;-93
2023/10/14 10:15:21;;;;;;;13.33;2.17;;;14.40;99.90;;;;;;5022339;28;20307;-91
2023/10/14 10:18:03;;;;;;;11.00;2.33;;;14.80;99.90;;;;;;5023079;28;20205;-92
2023/10/14 10:20:37;;;;;;;7.93;2.07;;;14.30;99.90;;;;;;5022313;28;20249;-89
2023/10/14 10:23:06;;;;;;;8.23;1.57;;;14.60;99.90;;;;;;5009744;28;20181;-89
2023/10/14 10:25:37;;;;;;;8.27;2.13;;;14.70;67.10;;;;;;5029103;28;20622;-87
2023/10/14 10:28:25;;;;;;;8.93;2.20;;;15.50;93.10;;;;;;5028443;28;20197;-87
2023/10/14 10:30:54;;;;;;;12.23;2.80;;;15.90;82.80;;;;;;5016966;28;20266;-88
2023/10/14 10:33:22;;;;;;;6.87;1.70;;;14.40;99.90;;;;;;5028300;28;20188;-86
2023/10/14 10:36:03;;;;;;;10.30;1.90;;;14.70;99.90;;;;;;5028565;28;20186;-86
2023/10/14 10:38:32;;;;;;;8.60;1.70;;;14.30;99.90;;;;;;5029226;28;20205;-90
2023/10/14 10:41:23;;;;;;;12.47;2.00;;;14.20;99.90;;;;;;5031760;28;20236;-88
2023/10/14 10:43:50;;;;;;;12.80;1.70;;;15.10;99.90;;;;;;5028157;28;20185;-91
2023/10/14 10:46:38;;;;;;;7.13;1.53;;;14.30;99.90;;;;;;5028647;28;20276;-87
2023/10/14 10:49:06;;;;;;;6.80;1.70;;;15.10;99.90;;;;;;5027626;28;20265;-91
2023/10/14 10:51:35;;;;;;;7.10;2.00;;;15.60;99.90;;;;;;5027863;28;20213;-88
2023/10/14 10:54:02;;;;;;;8.03;1.93;;;15.90;99.90;;;;;;5028525;28;20220;-89
2023/10/14 10:56:29;;;;;;;10.40;1.80;;;14.50;99.90;;;;;;5028121;28;20186;-91
2023/10/14 10:58:57;;;;;;;7.10;1.57;;;14.70;99.90;;;;;;5025882;28;20292;-87
2023/10/14 11:01:23;;;;;;;9.00;1.60;;;15.90;99.90;;;;;;5025711;28;20185;-88
2023/10/14 11:03:49;;;;;;;8.23;1.97;;;15.10;99.90;;;;;;5009618;28;20200;-89
2023/10/14 11:06:19;;;;;;;4.53;1.87;;;15.00;97.40;;;;;;5028234;28;20193;-89
2023/10/14 11:08:46;;;;;;;8.07;1.67;;;15.80;97.50;;;;;;5026676;28;20228;-88
2023/10/14 11:11:14;;;;;;;7.43;2.27;;;16.20;93.70;;;;;;5027968;28;20691;-91
2023/10/14 11:16:12;;;;;;;9.90;1.70;;;15.40;96.70;;;;;;5023849;23;20263;-43
2023/10/14 11:18:48;;;;;;;7.73;1.67;;;15.40;96.60;;;;;;5015598;28;20603;-43
2023/10/14 11:21:21;;;;;;;7.07;2.20;;;15.30;95.00;;;;;;5014598;28;20296;-45
2023/10/14 11:23:53;;;;;;;6.60;1.30;;;15.40;92.00;;;;;;5015884;28;20643;-43
2023/10/14 11:26:23;;;;;;;9.03;1.93;;;15.50;22.80;;;;;;5015934;28;20178;-42
2023/10/14 11:28:51;;;;;;;13.33;1.93;;;15.50;47.00;;;;;;4998666;28;20293;-43
2023/10/14 11:31:20;;;;;;;11.23;1.77;;;15.60;55.40;;;;;;5015592;28;20213;-46
2023/10/14 11:33:46;;;;;;;9.83;1.47;;;15.60;46.60;;;;;;5015587;28;20522;-43
2023/10/14 11:36:18;;;;;;;12.77;1.70;;;15.40;58.30;;;;;;5015636;28;20181;-44
2023/10/14 11:38:46;;;;;;;10.80;1.90;;;15.40;74.80;;;;;;5015463;28;20182;-42
2023/10/14 11:41:22;;;;;;;7.47;1.70;;;15.30;42.90;;;;;;5015410;28;20207;-42
2023/10/14 11:43:52;;;;;;;6.63;1.67;;;15.30;23.00;;;;;;5015804;28;20683;-41
2023/10/14 11:46:18;;;;;;;6.33;1.60;;;15.30;69.50;;;;;;5014116;28;20236;-43
2023/10/14 11:48:50;;;;;;;4.63;1.30;;;15.30;62.90;;;;;;5014099;28;20733;-40
2023/10/14 11:51:21;;;;;;;7.40;1.67;;;15.40;76.00;;;;;;5013802;28;20205;-41
2023/10/14 11:54:24;;;;;;;6.47;1.50;;;15.50;25.70;;;;;;5015375;28;20158;-43
2023/10/14 11:56:50;;;;;;;7.00;1.80;;;15.50;52.40;;;;;;5015285;28;20208;-43
2023/10/14 11:59:18;;;;;;;11.33;2.13;;;15.50;74.80;;;;;;5013846;28;20182;-43
2023/10/14 12:01:47;;;;;;;7.20;1.27;;;15.50;54.70;;;;;;5015041;28;20208;-43
2023/10/14 12:04:16;;;;;;;7.90;1.70;;;15.70;60.60;;;;;;5014978;28;20193;-43
2023/10/14 12:06:42;;;;;;;7.57;1.63;;;15.70;58.90;;;;;;5015012;28;20194;-44
2023/10/14 12:09:10;;;;;;;13.70;2.03;;;15.80;82.90;;;;;;5014880;28;20251;-41
2023/10/14 12:11:41;;;;;;;5.80;1.73;;;15.80;57.30;;;;;;5014269;28;20279;-41
2023/10/14 12:14:10;;;;;;;8.73;1.57;;;15.90;77.30;;;;;;5014840;28;20284;-45
2023/10/14 12:16:40;;;;;;;6.20;1.97;;;16.00;55.30;;;;;;5014713;28;20518;-41
2023/10/14 12:25:04;;;;;;;7.83;1.90;;;15.90;11.40;;;;;;2849312;23;20233;-41
2023/10/14 12:27:30;;;;;;;6.30;1.60;;;15.80;44.80;;;;;;5013288;28;20201;-41
2023/10/14 12:30:00;;;;;;;9.57;2.33;;;15.60;77.10;;;;;;5013209;28;20197;-44
2023/10/14 12:32:30;;;;;;;10.30;2.07;;;15.40;19.30;;;;;;5014383;28;20226;-42
2023/10/14 12:35:11;;;;;;;7.07;1.97;;;15.20;30.40;;;;;;5014419;28;20177;-42
2023/10/14 12:37:43;;;;;;;10.80;2.50;;;15.10;49.30;;;;;;4252610;27;25306463;-43
2023/10/14 12:40:12;;;;;;;4.87;1.60;;;15.10;62.70;;;;;;5125033;28;20555;-43
2023/10/14 12:42:45;;;;;;;7.57;2.30;;;15.00;80.80;;;;;;5093610;28;20174;-43
2023/10/14 12:45:14;;;;;;;9.50;2.00;;;14.80;82.50;;;;;;5094405;28;20170;-44
2023/10/14 12:47:46;;;;;;;8.37;2.20;;;14.20;99.90;;;;;;5093788;28;20174;-45
2023/10/14 12:50:19;;;;;;;9.03;1.70;;;13.80;99.90;;;;;;5093870;28;20267;-45
2023/10/14 12:53:03;;;;;;;7.10;1.90;;;13.50;99.90;;;;;;5110974;28;20615;-44
2023/10/14 12:55:36;;;;;;;8.00;1.97;;;13.30;99.90;;;;;;5111197;28;20603;-45
2023/10/14 12:58:04;;;;;;;7.47;2.20;;;13.20;99.90;;;;;;5110974;28;20253;-46
2023/10/14 13:00:31;;;;;;;6.30;1.37;;;13.30;99.90;;;;;;5110806;28;20186;-44
2023/10/14 13:03:01;;;;;;;6.97;1.40;;;13.30;99.90;;;;;;5092332;28;20186;-42
2023/10/14 13:05:29;;;;;;;6.20;1.50;;;13.30;99.90;;;;;;5092747;28;20680;-45
2023/10/14 13:08:23;;;;;;;3.90;1.40;;;13.30;99.90;;;;;;5093301;28;20182;-43
2023/10/14 13:10:49;;;;;;;10.37;2.13;;;13.30;99.90;;;;;;5111091;28;20197;-45
2023/10/14 13:13:15;;;;;;;11.23;2.00;;;13.50;99.90;;;;;;5092381;28;20235;-44
2023/10/14 13:15:43;;;;;;;11.77;2.43;;;13.50;99.90;;;;;;5110869;28;20206;-43
2023/10/14 13:18:12;;;;;;;8.17;1.83;;;13.60;99.90;;;;;;5110535;28;20178;-45
2023/10/14 13:20:43;;;;;;;6.00;1.70;;;13.70;99.90;;;;;;5092716;28;20186;-42
2023/10/14 13:23:14;;;;;;;7.30;1.70;;;13.70;99.90;;;;;;5110663;28;20169;-46
2023/10/14 13:29:02;;;;;;;6.27;1.40;;;13.90;99.90;;;;;;5110475;28;20260;-46
2023/10/14 13:31:28;;;;;;;4.67;1.50;;;14.00;99.90;;;;;;5075152;28;20289;-43
2023/10/14 13:34:04;;;;;;;6.00;2.33;;;14.00;99.90;;;;;;5090821;28;20238;-45
2023/10/14 13:36:33;;;;;;;7.30;1.63;;;14.10;99.90;;;;;;5110292;28;20189;-43
2023/10/14 13:44:51;;;;;;;6.03;1.47;;;14.30;97.30;;;;;;5048599;28;20223;-43
2023/10/14 13:47:17;;;;;;;9.50;2.00;;;14.30;99.90;;;;;;5028469;28;20721;-43
2023/10/14 13:49:45;;;;;;;7.47;1.90;;;14.30;90.90;;;;;;5014781;28;20213;-44
2023/10/14 13:52:16;;;;;;;8.40;1.70;;;14.40;99.90;;;;;;5015940;28;20224;-45
2023/10/14 13:54:45;;;;;;;7.73;1.80;;;14.50;99.90;;;;;;5016496;28;20180;-43
2023/10/14 13:57:11;;;;;;;12.10;1.97;;;14.70;88.80;;;;;;5016407;28;20233;-44
2023/10/14 13:59:40;;;;;;;9.77;2.00;;;14.80;96.90;;;;;;5016446;28;20189;-45
2023/10/14 14:02:06;;;;;;;7.93;1.90;;;14.90;96.20;;;;;;4999317;28;20695;-44
2023/10/14 14:04:33;;;;;;;5.93;1.70;;;14.90;76.20;;;;;;5016425;28;20197;-43
2023/10/14 14:07:06;;;;;;;8.60;2.03;;;14.90;86.10;;;;;;5016299;28;20240;-42
2023/10/14 14:09:32;;;;;;;9.27;1.63;;;15.10;91.80;;;;;;5015804;28;20240;-45
2023/10/14 14:11:58;;;;;;;13.03;1.67;;;15.20;66.30;;;;;;5016516;28;20182;-44